Time;durP1;ratioP1;P1;durP2;ratioP2;P2;SDS_P1;SDS_P2;PMS_P1;PMS_P2;Temp;Humidity;BMP_temperature;BMP_pressure;BME280_temperature;BME280_humidity;BME280_pressure;Samples;Min_cycle;Max_cycle;Signal;HPM_P1;HPM_P2
2022/05/29 02:00:03;;;;;;;11.70;2.80;;;;;;;10.06;100.00;101444.88;5806577;23;20482;-78
2022/05/29 02:02:36;;;;;;;7.70;2.17;;;;;;;8.83;100.00;101244.16;5050934;28;20462;-80
2022/05/29 03:12:23;;;;;;;5.10;2.03;;;;;;;10.77;100.00;101506.28;5031231;28;20495;-80
2022/05/29 04:58:16;;;;;;;8.37;2.23;;;;;;;9.48;100.00;101297.19;6080165;23;20379;-78
2022/05/29 08:36:55;;;;;;;6.05;1.55;;;;;;;11.12;100.00;101518.13;6146514;23;21500;31
2022/05/29 08:39:53;;;;;;;4.80;1.50;;;;;;;11.24;100.00;101513.13;5647833;23;20455;31
2022/05/29 08:51:10;;;;;;;3.47;1.23;;;;;;;11.75;100.00;101495.16;6144023;23;22434;31
2022/05/29 09:01:35;;;;;;;6.27;1.60;;;;;;;11.74;100.00;101481.88;5286045;23;20508;-87
2022/05/29 09:04:10;;;;;;;4.40;1.33;;;;;;;11.68;100.00;101443.16;4962624;28;20819;-87
2022/05/29 09:06:57;;;;;;;6.17;1.67;;;;;;;11.71;100.00;101396.28;4962912;28;20457;-83
2022/05/29 09:09:32;;;;;;;6.43;2.00;;;;;;;12.25;100.00;101471.03;4979286;28;20449;-78
2022/05/29 09:12:01;;;;;;;4.07;1.10;;;;;;;12.19;100.00;101475.31;4969591;28;20523;-92
2022/05/29 09:15:12;;;;;;;8.03;1.60;;;;;;;11.95;100.00;101487.31;4967395;28;20805;-84
2022/05/29 09:17:51;;;;;;;6.83;1.70;;;;;;;11.91;100.00;101490.56;4965984;28;20514;-77
2022/05/29 09:20:28;;;;;;;4.13;1.40;;;;;;;11.32;100.00;101440.50;4968280;28;20821;-78
2022/05/29 09:23:00;;;;;;;2.33;1.03;;;;;;;11.21;100.00;101460.63;4968198;28;20544;-86
2022/05/29 09:25:39;;;;;;;4.37;1.47;;;;;;;11.40;100.00;101459.22;4968192;28;20499;-75
2022/05/29 09:28:10;;;;;;;3.47;1.03;;;;;;;10.91;100.00;101365.91;4959539;28;20440;-74
2022/05/29 09:30:38;;;;;;;3.53;1.30;;;;;;;11.46;100.00;101479.94;4969898;28;20544;-75
2022/05/29 09:33:15;;;;;;;5.27;1.37;;;;;;;11.77;100.00;101478.81;4962043;28;20469;-78
2022/05/29 09:35:54;;;;;;;3.20;1.43;;;;;;;11.53;100.00;101399.41;4967705;28;20441;-77
2022/05/29 09:38:39;;;;;;;4.47;0.97;;;;;;;12.13;100.00;101469.91;4965551;28;20445;-78
2022/05/29 09:41:10;;;;;;;7.30;1.40;;;;;;;12.01;100.00;101431.13;4961800;28;20457;-76
2022/05/29 09:43:35;;;;;;;2.90;1.30;;;;;;;12.27;100.00;101460.91;4966386;28;20437;-77
2022/05/29 09:46:21;;;;;;;6.43;1.20;;;;;;;12.23;100.00;101465.00;4969183;28;20492;-78
2022/05/29 09:51:49;;;;;;;5.50;1.57;;;;;;;11.81;100.00;101399.47;4960236;28;20468;-77
2022/05/29 09:54:27;;;;;;;6.63;1.40;;;;;;;11.73;100.00;101494.50;4980496;28;20532;-82
2022/05/29 09:56:53;;;;;;;4.20;1.40;;;;;;;11.66;100.00;101495.47;4968947;28;20471;-90
2022/05/29 09:59:21;;;;;;;8.73;1.67;;;;;;;11.64;100.00;101505.56;4961957;28;21009;-78
2022/05/29 10:01:47;;;;;;;5.87;1.17;;;;;;;11.59;100.00;101500.75;4961617;28;20249;-77
2022/05/29 10:04:22;;;;;;;7.30;2.60;;;;;;;11.40;100.00;101461.03;4960063;28;20703;-87
2022/05/29 10:06:53;;;;;;;3.23;1.03;;;;;;;11.65;100.00;101440.84;4961614;28;22613;-78
2022/05/29 10:09:21;;;;;;;6.97;1.20;;;;;;;11.77;100.00;101478.81;4961611;28;20445;-92
2022/05/29 10:11:53;;;;;;;3.20;1.30;;;;;;;12.11;100.00;101469.25;4957499;28;20989;-89
2022/05/29 10:14:18;;;;;;;5.53;1.23;;;;;;;12.34;100.00;101461.78;4964390;28;20453;-86
2022/05/29 10:16:44;;;;;;;4.87;1.33;;;;;;;12.38;100.00;101429.94;4963971;28;20906;-86
2022/05/29 10:19:14;;;;;;;3.93;1.13;;;;;;;12.71;100.00;101456.25;4960611;28;20194;-83
2022/05/29 10:21:50;;;;;;;4.30;1.30;;;;;;;12.84;100.00;101449.09;4970896;28;20286;-90
2022/05/29 10:24:23;;;;;;;5.90;1.40;;;;;;;12.50;100.00;101460.69;4966179;28;20555;-81
2022/05/29 10:26:52;;;;;;;3.90;1.27;;;;;;;12.30;100.00;101459.69;4965953;28;20456;-86
2022/05/29 10:29:24;;;;;;;6.43;1.40;;;;;;;12.18;100.00;101479.06;4974069;28;20449;-85
2022/05/29 10:31:51;;;;;;;6.70;1.60;;;;;;;11.29;100.00;101365.69;4952807;28;20516;-80
2022/05/29 10:34:36;;;;;;;8.57;2.23;;;;;;;12.14;100.00;101476.94;4967307;28;20525;-77
2022/05/29 10:37:28;;;;;;;5.10;1.70;;;;;;;12.11;100.00;101450.44;4962588;28;20543;-73
2022/05/29 10:40:12;;;;;;;6.87;1.73;;;;;;;12.20;100.00;101465.38;4956758;28;20495;-77
2022/05/29 10:42:41;;;;;;;7.43;1.77;;;;;;;11.76;100.00;101373.16;4960144;28;20446;-81
2022/05/29 10:45:08;;;;;;;8.63;1.53;;;;;;;12.01;100.00;101402.38;4959208;28;20445;-80
2022/05/29 10:47:51;;;;;;;4.10;1.27;;;;;;;12.18;100.00;101427.94;4962622;28;20818;-77
2022/05/29 10:50:50;;;;;;;3.47;1.40;;;;;;;12.09;100.00;101447.09;4959354;28;21218;-74
2022/05/29 10:53:19;;;;;;;6.77;1.93;;;;;;;12.33;100.00;101445.84;4963273;28;20577;-77
2022/05/29 10:56:07;;;;;;;8.27;1.73;;;;;;;12.11;100.00;101429.75;4966385;28;20433;-76
2022/05/29 10:58:38;;;;;;;5.70;2.23;;;;;;;12.26;100.00;101461.09;4954258;28;20476;-78
2022/05/29 11:04:35;;;;;;;4.53;1.20;;;;;;;12.15;100.00;101478.56;4963617;28;20437;-76
2022/05/29 11:07:37;;;;;;;7.30;1.87;;;;;;;11.79;100.00;101498.28;4960300;28;20537;-82
2022/05/29 11:10:20;;;;;;;8.37;1.50;;;;;;;11.75;100.00;101486.25;4960417;28;20466;-79
2022/05/29 11:13:09;;;;;;;7.77;1.87;;;;;;;11.77;100.00;101446.56;4964290;28;20464;-74
2022/05/29 11:15:50;;;;;;;7.43;2.17;;;;;;;12.06;100.00;101475.19;4952662;28;20440;-77
2022/05/29 11:18:34;;;;;;;4.43;1.40;;;;;;;12.30;100.00;101471.28;4953396;28;20469;-82
2022/05/29 11:21:23;;;;;;;4.40;1.57;;;;;;;12.42;100.00;101456.25;4965130;28;20885;-78
2022/05/29 11:23:54;;;;;;;7.80;1.10;;;;;;;12.34;100.00;101445.63;4958389;28;20520;-80
2022/05/29 11:26:49;;;;;;;5.40;1.43;;;;;;;12.51;100.00;101434.59;4958617;28;20596;-83
2022/05/29 11:29:51;;;;;;;9.23;1.90;;;;;;;12.50;100.00;101440.97;4966895;28;20434;-81
2022/05/29 11:32:38;;;;;;;8.10;1.60;;;;;;;12.60;100.00;101434.22;4982048;28;20469;-89
2022/05/29 11:35:36;;;;;;;11.33;2.20;;;;;;;12.46;100.00;101429.78;4969589;28;20981;-90
2022/05/29 11:38:27;;;;;;;9.33;2.73;;;;;;;12.47;100.00;101444.06;4970181;28;20432;-90
2022/05/29 11:41:08;;;;;;;4.03;1.40;;;;;;;12.58;100.00;101441.69;4970632;28;20449;-88
2022/05/29 11:43:49;;;;;;;7.73;2.20;;;;;;;12.48;100.00;101440.38;4970819;28;20466;-82
2022/05/29 11:52:16;;;;;;;4.60;1.60;;;;;;;12.51;100.00;101429.22;4969535;28;20476;-78
2022/05/29 11:54:59;;;;;;;6.80;1.80;;;;;;;12.50;100.00;101419.47;4971261;28;20426;-79
2022/05/29 11:57:42;;;;;;;6.53;2.40;;;;;;;12.50;100.00;101417.63;4969636;28;20240;-80
2022/05/29 12:00:44;;;;;;;4.50;1.40;;;;;;;12.42;100.00;101437.44;4967638;28;24103;-78
2022/05/29 12:03:44;;;;;;;5.30;1.70;;;;;;;12.25;100.00;101436.06;4952407;28;20527;-80
2022/05/29 12:06:31;;;;;;;4.97;1.60;;;;;;;12.01;100.00;101449.94;4969152;28;20468;-82
2022/05/29 12:09:22;;;;;;;4.10;1.73;;;;;;;11.95;100.00;101440.78;4970645;28;20413;-80
2022/05/29 12:12:02;;;;;;;4.87;1.50;;;;;;;12.11;100.00;101445.03;4969359;28;21111;-82
2022/05/29 12:14:33;;;;;;;5.00;1.63;;;;;;;12.15;100.00;101438.25;4968929;28;20425;-80
2022/05/29 12:17:14;;;;;;;9.00;1.57;;;;;;;12.09;100.00;101430.94;4985035;28;20429;-86
2022/05/29 12:20:06;;;;;;;6.57;1.80;;;;;;;11.86;100.00;101391.69;4969258;28;20426;-79
2022/05/29 12:23:01;;;;;;;4.90;1.40;;;;;;;11.32;100.00;101282.88;4970278;28;20425;-80
2022/05/29 12:26:00;;;;;;;3.70;1.17;;;;;;;12.38;100.00;101429.94;4969077;28;20495;-83
2022/05/29 12:28:41;;;;;;;7.37;1.90;;;;;;;12.48;100.00;101438.50;4970521;28;20421;-84
2022/05/29 12:31:12;;;;;;;4.60;1.47;;;;;;;12.49;100.00;101431.25;4969013;28;20449;-85
2022/05/29 12:33:44;;;;;;;4.37;1.77;;;;;;;12.31;100.00;101386.03;4970581;28;20519;-81
2022/05/29 12:36:20;;;;;;;6.00;2.00;;;;;;;12.65;100.00;101425.56;4970142;28;20521;-78
2022/05/29 12:39:18;;;;;;;7.30;1.93;;;;;;;12.45;100.00;101441.59;4979019;28;20806;-76
2022/05/29 12:42:08;;;;;;;7.70;1.87;;;;;;;12.77;100.00;101420.47;4973848;28;20450;-78
2022/05/29 12:45:21;;;;;;;11.17;1.93;;;;;;;12.27;100.00;101337.19;4988687;28;20433;-86
2022/05/29 12:47:46;;;;;;;8.30;2.00;;;;;;;12.97;100.00;101410.63;4983529;28;20812;-79
2022/05/29 12:50:36;;;;;;;3.10;1.40;;;;;;;13.18;100.00;101431.19;4983219;28;20458;-77
2022/05/29 12:53:37;;;;;;;4.60;1.63;;;;;;;13.23;100.00;101412.59;4973848;28;20209;-77
2022/05/29 12:56:24;;;;;;;6.13;1.60;;;;;;;12.15;100.00;101295.72;4969517;28;20767;-77
2022/05/29 12:59:12;;;;;;;7.97;2.10;;;;;;;12.22;100.00;101291.22;4974498;28;20413;-78
2022/05/29 13:02:05;;;;;;;3.57;1.63;;;;;;;13.03;100.00;101420.59;4972673;28;20461;-78
2022/05/29 13:05:07;;;;;;;8.97;2.13;;;;;;;12.71;100.00;101341.34;4973828;28;20417;-77
2022/05/29 13:07:47;;;;;;;6.20;1.73;;;;;;;12.86;100.00;101411.19;4974182;28;21040;-79
2022/05/29 13:10:23;;;;;;;4.93;1.33;;;;;;;12.20;100.00;101302.16;4973691;28;20528;-78
2022/05/29 13:13:13;;;;;;;5.53;2.03;;;;;;;12.29;100.00;101351.25;4974535;28;20461;-76
2022/05/29 13:15:41;;;;;;;5.00;1.27;;;;;;;12.76;100.00;101416.13;4972937;28;20528;-80
2022/05/29 13:18:19;;;;;;;4.20;1.50;;;;;;;12.39;100.00;101334.78;4972267;28;20422;-75
2022/05/29 13:21:18;;;;;;;5.07;1.50;;;;;;;12.92;100.00;101409.56;4972667;28;21020;-80
2022/05/29 13:23:45;;;;;;;5.63;1.40;;;;;;;12.89;100.00;101421.56;4972752;28;20457;-77
2022/05/29 13:26:18;;;;;;;3.70;1.20;;;;;;;13.12;100.00;101411.28;4971815;28;20433;-76
2022/05/29 13:28:43;;;;;;;4.23;1.33;;;;;;;13.22;100.00;101410.94;4973291;28;20436;-78
2022/05/29 13:31:12;;;;;;;6.57;2.03;;;;;;;13.26;100.00;101379.06;4973467;28;20453;-81
2022/05/29 13:33:49;;;;;;;7.57;2.00;;;;;;;13.11;100.00;101360.34;4973275;28;20202;-83
2022/05/29 13:36:37;;;;;;;5.07;1.63;;;;;;;13.52;100.00;101410.63;4973177;28;20759;-78
2022/05/29 13:39:06;;;;;;;5.27;1.70;;;;;;;13.30;100.00;101362.25;4972905;28;20425;-79
2022/05/29 13:41:52;;;;;;;7.83;1.90;;;;;;;13.64;100.00;101410.84;4973365;28;20445;-77
2022/05/29 13:44:28;;;;;;;10.20;1.43;;;;;;;12.80;100.00;101310.50;4972595;28;20898;-78
2022/05/29 13:47:19;;;;;;;6.00;1.40;;;;;;;13.30;100.00;101408.06;4973114;28;20443;-86
2022/05/29 13:50:00;;;;;;;5.00;1.73;;;;;;;13.33;100.00;101421.13;4973041;28;20517;-84
2022/05/29 13:52:45;;;;;;;4.40;1.40;;;;;;;13.49;100.00;101411.03;4968338;28;20473;-79
2022/05/29 13:55:50;;;;;;;3.53;1.20;;;;;;;13.07;100.00;101410.22;4955626;28;21019;-78
2022/05/29 14:04:51;;;;;;;5.23;1.90;;;;;;;12.75;100.00;101427.91;4957042;28;20438;-79
2022/05/29 14:07:24;;;;;;;5.30;1.40;;;;;;;12.90;100.00;101444.75;4966383;28;20433;-81
2022/05/29 14:10:22;;;;;;;6.50;2.30;;;;;;;12.88;100.00;101430.66;4961396;28;20438;-77
2022/05/29 14:13:06;;;;;;;11.30;1.77;;;;;;;12.86;100.00;101425.47;4965921;28;20489;-87
2022/05/29 14:15:37;;;;;;;7.67;2.03;;;;;;;12.84;100.00;101432.94;4986253;28;20439;-93
2022/05/29 14:18:18;;;;;;;5.90;1.40;;;;;;;12.97;100.00;101429.47;4988341;28;20455;-86
2022/05/29 14:20:53;;;;;;;5.87;2.20;;;;;;;12.96;100.00;101425.13;4963696;28;20544;-78
2022/05/29 14:23:18;;;;;;;6.60;1.70;;;;;;;13.00;100.00;101428.25;4968821;28;20830;-90
2022/05/29 14:26:14;;;;;;;4.60;2.00;;;;;;;12.97;100.00;101423.25;4963435;28;20500;-92
2022/05/29 14:28:52;;;;;;;5.50;1.77;;;;;;;12.97;100.00;101420.56;4964976;28;20197;-82
2022/05/29 14:32:02;;;;;;;7.23;2.20;;;;;;;12.95;100.00;101420.75;4953447;28;20461;-81
2022/05/29 14:34:53;;;;;;;6.00;2.07;;;;;;;13.00;100.00;101402.13;4917117;28;21017;-83
2022/05/29 14:37:21;;;;;;;5.07;1.40;;;;;;;13.02;100.00;101418.09;4938155;28;20445;-80
2022/05/29 14:40:14;;;;;;;3.87;1.47;;;;;;;13.14;100.00;101412.97;4946973;28;20556;-78
2022/05/29 14:42:43;;;;;;;4.07;1.50;;;;;;;13.10;100.00;101412.53;4964617;28;20488;-82
2022/05/29 14:45:21;;;;;;;4.17;1.37;;;;;;;13.13;100.00;101412.13;4966025;28;21621;-79
2022/05/29 14:47:54;;;;;;;7.07;1.70;;;;;;;12.86;100.00;101413.88;4959642;28;20669;-79
2022/05/29 14:50:33;;;;;;;4.90;1.50;;;;;;;13.01;100.00;101409.16;4976943;28;20461;-81
2022/05/29 14:53:04;;;;;;;5.00;2.10;;;;;;;13.03;100.00;101411.69;4962497;28;20477;-80
2022/05/29 14:55:54;;;;;;;6.33;1.83;;;;;;;12.80;100.00;101412.81;4961065;28;20516;-79
2022/05/29 14:58:28;;;;;;;6.50;1.97;;;;;;;12.52;100.00;101420.94;4960994;28;20464;-82
2022/05/29 15:00:54;;;;;;;6.03;2.73;;;;;;;12.24;100.00;101394.06;4968083;28;21132;-78
2022/05/29 15:03:26;;;;;;;4.73;1.80;;;;;;;12.33;100.00;101424.34;4970975;28;20791;-78
2022/05/29 15:05:54;;;;;;;5.60;1.70;;;;;;;12.51;100.00;101435.41;4957703;28;20437;-76
2022/05/29 15:11:13;;;;;;;7.03;1.70;;;;;;;12.17;100.00;101363.59;4956779;28;20488;-79
2022/05/29 15:13:57;;;;;;;5.33;2.10;;;;;;;12.15;100.00;101379.94;4962114;28;20838;-82
2022/05/29 15:16:25;;;;;;;5.57;1.77;;;;;;;12.31;100.00;101429.06;4958596;28;20716;-85
2022/05/29 15:18:50;;;;;;;6.13;1.50;;;;;;;11.91;100.00;101369.59;4964488;28;20918;-83
2022/05/29 15:24:24;;;;;;;8.60;2.70;;;;;;;11.67;100.00;101347.47;4962954;28;20304;-87
2022/05/29 15:27:11;;;;;;;6.97;1.80;;;;;;;12.30;100.00;101425.56;4975433;23;20515;-77
2022/05/29 15:29:50;;;;;;;5.00;1.60;;;;;;;12.37;100.00;101429.09;4978953;28;20444;-78
2022/05/29 15:32:32;;;;;;;6.40;1.90;;;;;;;12.24;100.00;101433.56;4974599;28;21127;-77
2022/05/29 15:35:09;;;;;;;7.47;1.97;;;;;;;12.21;100.00;101422.19;4980283;28;20498;-78
2022/05/29 15:37:53;;;;;;;8.20;2.10;;;;;;;12.33;100.00;101427.03;4976761;28;20529;-81
2022/05/29 15:40:52;;;;;;;5.53;1.47;;;;;;;12.24;100.00;101434.41;4971351;28;21398;-77
2022/05/29 15:43:39;;;;;;;11.00;2.10;;;;;;;12.00;100.00;101430.25;4967182;28;20531;-85
2022/05/29 15:46:05;;;;;;;7.43;1.80;;;;;;;11.95;100.00;101430.88;4989393;28;20520;-83
2022/05/29 15:48:49;;;;;;;5.77;2.00;;;;;;;11.99;100.00;101418.69;4996059;28;20444;-84
2022/05/29 15:51:40;;;;;;;3.43;1.47;;;;;;;11.75;100.00;101419.88;5000814;28;20209;-85
2022/05/29 15:54:28;;;;;;;4.70;1.50;;;;;;;11.72;100.00;101377.28;4984307;28;20436;-85
2022/05/29 15:57:12;;;;;;;4.33;1.40;;;;;;;12.04;100.00;101415.41;4978024;28;20499;-83
2022/05/29 15:59:49;;;;;;;4.73;1.60;;;;;;;11.99;100.00;101416.00;4983376;28;20444;-85
2022/05/29 16:02:16;;;;;;;7.83;2.70;;;;;;;11.99;100.00;101420.53;4978226;28;20428;-84
2022/05/29 16:04:45;;;;;;;6.33;2.00;;;;;;;12.06;100.00;101412.53;4982249;28;20452;-82
2022/05/29 16:07:31;;;;;;;9.87;2.57;;;;;;;12.05;100.00;101418.94;4978796;28;20614;-85
2022/05/29 16:09:59;;;;;;;6.20;1.90;;;;;;;11.97;100.00;101409.97;4982556;28;20440;-83
2022/05/29 16:12:27;;;;;;;4.50;1.77;;;;;;;11.91;100.00;101400.00;4983458;28;20504;-84
2022/05/29 16:14:54;;;;;;;4.77;1.60;;;;;;;11.94;100.00;101413.03;4983701;28;20459;-86
2022/05/29 16:17:36;;;;;;;5.57;1.40;;;;;;;11.98;100.00;101413.50;4980228;28;20461;-83
2022/05/29 16:20:11;;;;;;;4.43;1.60;;;;;;;11.95;100.00;101411.22;4983721;28;20491;-85
2022/05/29 16:22:50;;;;;;;5.30;1.60;;;;;;;12.07;100.00;101404.28;4979659;28;20432;-85
2022/05/29 16:25:18;;;;;;;6.50;1.40;;;;;;;12.03;100.00;101415.59;4983878;28;20437;-85
2022/05/29 16:27:57;;;;;;;6.33;1.50;;;;;;;12.05;100.00;101408.19;4983175;28;20479;-85
2022/05/29 16:30:26;;;;;;;8.77;2.07;;;;;;;12.07;100.00;101409.66;4981657;28;20567;-88
2022/05/29 16:32:54;;;;;;;9.87;1.60;;;;;;;12.07;100.00;101406.13;4973996;28;20478;-82
2022/05/29 16:35:41;;;;;;;7.20;1.97;;;;;;;12.12;100.00;101409.06;4980099;28;20504;-82
2022/05/29 16:50:09;;;;;;;6.47;2.10;;;;;;;12.06;100.00;101404.47;4974657;28;20452;-75
2022/05/29 16:52:35;;;;;;;5.93;1.50;;;;;;;11.81;100.00;101366.41;4975379;28;20472;-80
2022/05/29 16:55:12;;;;;;;3.70;1.40;;;;;;;12.07;100.00;101395.38;4978194;28;20441;-79
2022/05/29 16:57:48;;;;;;;4.77;1.73;;;;;;;12.19;100.00;101405.41;4976969;28;20579;-80
2022/05/29 17:00:21;;;;;;;4.60;1.70;;;;;;;11.71;100.00;101374.78;4978162;28;20452;-80
2022/05/29 17:03:01;;;;;;;10.30;2.23;;;;;;;11.90;100.00;101403.72;4982869;28;20502;-78
2022/05/29 17:05:31;;;;;;;4.27;1.73;;;;;;;11.93;100.00;101411.41;5000178;28;20809;-85
2022/05/29 17:08:01;;;;;;;5.37;1.70;;;;;;;11.84;100.00;101372.22;4994564;28;20468;-85
2022/05/29 17:10:56;;;;;;;6.90;1.57;;;;;;;11.97;100.00;101391.16;4995681;28;20452;-83
2022/05/29 17:13:23;;;;;;;5.47;1.67;;;;;;;12.12;100.00;101409.91;4980703;28;20475;-85
2022/05/29 17:15:48;;;;;;;10.80;2.40;;;;;;;12.09;100.00;101396.84;4980141;28;20476;-86
2022/05/29 17:18:14;;;;;;;4.17;1.87;;;;;;;11.79;100.00;101371.13;4974469;28;26556;-89
2022/05/29 17:21:09;;;;;;;5.23;1.83;;;;;;;12.02;100.00;101379.00;4997412;28;20228;-82
2022/05/29 17:24:00;;;;;;;5.77;2.00;;;;;;;11.85;100.00;101354.22;4977143;28;20197;-78
2022/05/29 17:27:01;;;;;;;7.20;2.00;;;;;;;11.95;100.00;101398.59;4977948;28;20491;-79
2022/05/29 17:29:48;;;;;;;6.27;1.90;;;;;;;12.00;100.00;101398.00;4979381;28;20482;-79
2022/05/29 17:32:23;;;;;;;3.97;1.70;;;;;;;12.13;100.00;101391.91;4976536;28;20468;-82
2022/05/29 17:35:19;;;;;;;6.67;2.03;;;;;;;11.94;100.00;101385.34;4981107;28;20991;-81
2022/05/29 17:37:50;;;;;;;7.23;1.87;;;;;;;11.89;100.00;101394.00;4984394;28;20525;-87
2022/05/29 17:40:22;;;;;;;6.13;1.43;;;;;;;12.01;100.00;101388.09;4982122;28;20441;-79
2022/05/29 17:42:48;;;;;;;4.93;1.50;;;;;;;11.91;100.00;101400.00;4985548;28;20433;-86
2022/05/29 17:45:14;;;;;;;7.00;2.30;;;;;;;11.60;100.00;101353.78;4985927;28;20455;-78
2022/05/29 17:48:01;;;;;;;4.83;1.87;;;;;;;11.84;100.00;101400.94;4982268;28;20280;-83
2022/05/29 17:50:39;;;;;;;3.70;1.67;;;;;;;11.89;100.00;101398.53;4997049;28;20824;-79
2022/05/29 17:53:22;;;;;;;5.23;1.60;;;;;;;11.69;100.00;101395.66;4985302;28;20468;-87
2022/05/29 17:55:47;;;;;;;8.60;1.60;;;;;;;11.92;100.00;101401.69;4978625;28;20532;-84
2022/05/29 17:58:14;;;;;;;6.83;1.83;;;;;;;11.06;100.00;101269.22;4987362;28;20902;-85
2022/05/29 18:00:41;;;;;;;5.63;1.67;;;;;;;11.54;100.00;101366.13;4985101;28;20209;-80
2022/05/29 18:03:12;;;;;;;4.00;1.50;;;;;;;11.67;100.00;101401.19;4979936;28;20483;-79
2022/05/29 18:05:38;;;;;;;3.67;1.10;;;;;;;11.67;100.00;101395.81;4979496;28;20445;-80
2022/05/29 18:08:04;;;;;;;3.77;1.50;;;;;;;11.61;100.00;101396.59;4980274;28;20522;-81
2022/05/29 18:10:33;;;;;;;4.93;1.67;;;;;;;11.44;100.00;101393.31;4983861;28;20194;-79
2022/05/29 18:12:59;;;;;;;4.90;1.67;;;;;;;11.47;100.00;101406.38;4982951;28;20486;-78
2022/05/29 18:15:27;;;;;;;2.83;1.27;;;;;;;11.66;100.00;101396.03;4982741;28;20452;-80
2022/05/29 18:17:53;;;;;;;4.80;2.10;;;;;;;11.54;100.00;101407.28;4980428;28;21066;-84
2022/05/29 18:20:19;;;;;;;8.63;1.40;;;;;;;11.15;100.00;101329.81;4982371;28;20455;-83
2022/05/29 18:22:49;;;;;;;8.70;1.70;;;;;;;11.25;100.00;101375.13;4986736;28;20918;-81
2022/05/29 18:25:16;;;;;;;3.80;1.20;;;;;;;11.31;100.00;101374.38;4989202;28;20448;-89
2022/05/29 18:27:42;;;;;;;2.87;1.20;;;;;;;11.55;100.00;101405.44;4987276;28;20468;-87
2022/05/29 18:30:09;;;;;;;6.63;1.60;;;;;;;11.57;100.00;101389.09;4987070;28;20487;-84
2022/05/29 18:32:37;;;;;;;4.47;1.53;;;;;;;11.29;100.00;101338.84;4985569;28;20206;-81
2022/05/29 18:35:03;;;;;;;4.03;1.43;;;;;;;11.53;100.00;101392.19;4983649;28;20533;-76
2022/05/29 18:37:30;;;;;;;5.43;1.60;;;;;;;11.30;100.00;101368.19;4980790;28;20626;-79
2022/05/29 18:39:56;;;;;;;7.20;1.93;;;;;;;10.95;100.00;101310.81;4985381;28;20201;-89
2022/05/29 18:42:22;;;;;;;3.70;1.23;;;;;;;11.31;100.00;101372.53;4986328;28;21402;-88
2022/05/29 18:44:47;;;;;;;4.10;1.20;;;;;;;11.20;100.00;101354.25;4979719;28;21663;-79
2022/05/29 18:47:14;;;;;;;3.87;1.10;;;;;;;11.32;100.00;101359.94;4973906;28;20340;-85
2022/05/29 18:49:39;;;;;;;3.80;1.40;;;;;;;11.19;100.00;101346.38;5002933;28;20185;-86
2022/05/29 18:52:04;;;;;;;3.73;1.53;;;;;;;11.09;100.00;101377.03;4984239;28;20464;-84
2022/05/29 18:54:30;;;;;;;6.53;1.87;;;;;;;11.23;100.00;101367.28;4986117;28;20237;-87
2022/05/29 18:56:56;;;;;;;12.23;1.90;;;;;;;11.43;100.00;101398.91;4985171;28;20210;-85
2022/05/29 18:59:23;;;;;;;3.60;1.40;;;;;;;10.17;100.00;101195.13;4987282;28;20261;-83
2022/05/29 19:01:48;;;;;;;3.43;1.10;;;;;;;11.22;100.00;101375.53;4978202;28;20479;-89
2022/05/29 19:04:13;;;;;;;3.93;1.20;;;;;;;11.07;100.00;101362.97;4972579;28;20950;-81
2022/05/29 19:06:39;;;;;;;2.87;1.10;;;;;;;11.34;100.00;101391.97;4981807;28;20212;-84
2022/05/29 19:09:05;;;;;;;4.53;1.50;;;;;;;10.79;100.00;101286.88;4981876;28;20190;-84
2022/05/29 19:11:30;;;;;;;3.50;1.30;;;;;;;10.60;100.00;101297.19;4996649;28;20634;-80
2022/05/29 19:13:56;;;;;;;6.13;1.33;;;;;;;10.86;100.00;101346.84;4980100;28;20214;-85
2022/05/29 19:16:27;;;;;;;2.87;1.23;;;;;;;11.14;100.00;101378.31;4977413;28;20228;-77
2022/05/29 19:18:54;;;;;;;2.60;0.90;;;;;;;11.40;100.00;101392.06;4977237;28;20273;-80
2022/05/29 19:21:21;;;;;;;2.73;1.20;;;;;;;10.95;100.00;101348.38;4972225;28;20455;-84
2022/05/29 19:23:48;;;;;;;5.57;1.53;;;;;;;11.16;100.00;101393.22;4978961;28;20425;-79
2022/05/29 19:26:18;;;;;;;3.50;1.37;;;;;;;10.93;100.00;101369.19;4981453;28;20445;-77
2022/05/29 19:28:53;;;;;;;5.17;1.20;;;;;;;10.31;100.00;101273.09;4995107;28;20440;-75
2022/05/29 19:31:31;;;;;;;4.73;1.10;;;;;;;11.24;100.00;101389.59;4980599;28;20802;-85
2022/05/29 19:33:57;;;;;;;3.33;1.33;;;;;;;10.71;100.00;101311.97;4976595;28;20850;-85
2022/05/29 19:36:24;;;;;;;0.90;0.80;;;;;;;10.73;100.00;101335.94;4979979;28;20462;-88
2022/05/29 19:38:50;;;;;;;2.90;1.17;;;;;;;11.17;100.00;101396.75;4988559;28;20204;-90
2022/05/29 19:41:18;;;;;;;4.40;1.07;;;;;;;10.71;100.00;101336.13;4987407;28;20441;-88
2022/05/29 19:43:43;;;;;;;4.47;1.33;;;;;;;10.84;100.00;101367.66;5002938;28;20182;-89
2022/05/29 19:46:14;;;;;;;2.80;1.10;;;;;;;11.16;100.00;101397.75;4990360;28;20964;-90
2022/05/29 19:48:40;;;;;;;4.53;1.10;;;;;;;10.95;100.00;101363.66;4983574;28;20558;-89
2022/05/29 19:51:07;;;;;;;3.30;1.30;;;;;;;11.01;100.00;101395.94;4989841;28;20436;-89
2022/05/29 19:53:32;;;;;;;2.93;1.00;;;;;;;10.79;100.00;101376.28;4986677;28;20467;-90
2022/05/29 19:56:00;;;;;;;3.20;1.10;;;;;;;10.98;100.00;101404.38;4984569;28;20442;-89
2022/05/29 19:58:25;;;;;;;2.57;1.40;;;;;;;10.73;100.00;101366.28;4983741;28;20232;-89
2022/05/29 20:00:51;;;;;;;3.30;1.43;;;;;;;10.52;100.00;101309.88;4984479;28;20846;-89
2022/05/29 20:03:16;;;;;;;4.80;1.30;;;;;;;11.11;100.00;101397.50;4980248;28;20248;-88
2022/05/29 20:05:42;;;;;;;4.27;1.23;;;;;;;11.21;100.00;101406.91;4985366;28;20181;-88
2022/05/29 20:08:07;;;;;;;4.80;1.20;;;;;;;10.60;100.00;101326.69;4988023;28;20238;-90
2022/05/29 20:10:32;;;;;;;6.90;1.53;;;;;;;10.88;100.00;101374.31;4986349;28;20228;-89
2022/05/29 20:12:58;;;;;;;7.30;2.10;;;;;;;10.91;100.00;101382.00;4984836;28;21004;-89
2022/05/29 20:15:24;;;;;;;2.93;1.30;;;;;;;10.78;100.00;101344.25;4987231;28;20591;-90
2022/05/29 20:17:49;;;;;;;5.40;1.43;;;;;;;10.67;100.00;101312.53;4985841;28;20205;-88
2022/05/29 20:20:16;;;;;;;6.60;1.90;;;;;;;11.05;100.00;101417.88;4986104;28;20444;-89
2022/05/29 20:22:41;;;;;;;6.63;2.03;;;;;;;10.80;100.00;101367.19;4989728;28;20177;-90
2022/05/29 20:25:08;;;;;;;5.53;1.33;;;;;;;11.09;100.00;101392.31;4989114;28;20455;-91
2022/05/29 20:27:34;;;;;;;5.50;1.80;;;;;;;10.93;100.00;101395.22;4982426;28;20661;-92
2022/05/29 20:29:59;;;;;;;3.97;1.23;;;;;;;10.69;100.00;101353.44;4988456;28;20520;-91
2022/05/29 20:32:26;;;;;;;4.63;1.20;;;;;;;10.78;100.00;101381.81;4990588;28;20209;-91
2022/05/29 20:34:51;;;;;;;3.63;1.13;;;;;;;9.70;100.00;101206.28;4986857;28;20182;-90
2022/05/29 20:37:18;;;;;;;3.10;1.00;;;;;;;10.95;100.00;101406.59;4992192;28;20452;-91
2022/05/29 20:39:43;;;;;;;3.63;1.30;;;;;;;10.54;100.00;101332.81;4989737;28;20188;-91
2022/05/29 20:42:09;;;;;;;4.97;1.60;;;;;;;10.37;100.00;101291.13;4987811;28;20418;-90
2022/05/29 20:44:34;;;;;;;2.90;1.10;;;;;;;11.01;100.00;101395.13;5000531;28;20190;-91
2022/05/29 20:49:45;;;;;;;3.23;1.23;;;;;;;10.71;100.00;101372.88;4984975;28;20665;-90
2022/05/29 20:52:13;;;;;;;5.57;1.40;;;;;;;10.44;100.00;101312.66;5001856;28;20483;-91
2022/05/29 20:54:39;;;;;;;3.13;1.10;;;;;;;10.83;100.00;101390.16;4989541;28;20436;-91
2022/05/29 20:57:05;;;;;;;4.63;1.27;;;;;;;10.33;100.00;101322.84;4987022;28;20548;-91
2022/05/29 20:59:32;;;;;;;9.03;1.10;;;;;;;10.44;100.00;101359.06;4985528;28;20441;-92
2022/05/29 21:01:58;;;;;;;4.57;0.90;;;;;;;10.63;100.00;101382.66;4989649;28;20441;-90
2022/05/29 21:04:27;;;;;;;3.00;1.07;;;;;;;10.91;100.00;101384.69;4989466;28;20800;-89
2022/05/29 21:06:54;;;;;;;3.50;1.40;;;;;;;10.53;100.00;101349.06;5003798;28;20483;-90
2022/05/29 21:09:20;;;;;;;3.23;1.43;;;;;;;10.34;100.00;101324.50;4991280;28;20455;-90
2022/05/29 21:11:45;;;;;;;6.03;1.17;;;;;;;10.83;100.00;101385.59;4990527;28;20523;-91
2022/05/29 21:14:11;;;;;;;2.40;1.13;;;;;;;10.96;100.00;101376.88;4991818;28;20515;-91
2022/05/29 21:16:38;;;;;;;6.73;1.57;;;;;;;10.88;100.00;101381.50;4989418;28;20206;-92